aviador You're here:

DTTJ Decoded Metar

DJERBA in TUNISIA
Report Time2017-12-18 08:30:00
UTC Time2017-12-18 08:54:39
Flight Rules vfr VFR
Wind320° at 15 kt
W.Decomp.*RWY 27: 9.8 kt HW 11.3 kt RCW
W.Rank320° ranks 29
Current wind is above 320° avg. (8.3)
Visibility9999 m
Phenomena:N/A
Clouds:N/A
Expected CloudBase > 3,600 ft AGL from Temp-Dew spread
CeilingNone
Temp12°C (ISA -3)
Dew Point03°C (54% RH)
AAT5.1°C
QNH1026 hPa
Density Alt-676 ft
Elevation13 ft
Report Wrong Elevation
Raw Report
METAR DTTJ 180830Z 32015KT CAVOK 12/03 Q1026 NOSIG=####018000574####
SPUS99 KWBC 180834

Extra information for DTTJ:More info

Metar Taf Metar & Taf Last 4 Metars F.Rules Stats Wind Profile Meteogram Temp Stats Airport Information Weather charts Add Link Nearby VenuesMetar ALERT Operation Metar Decoded Social comments